Time;durP1;ratioP1;P1;durP2;ratioP2;P2;SDS_P1;SDS_P2;PMS_P1;PMS_P2;Temp;Humidity;BMP_temperature;BMP_pressure;BME280_temperature;BME280_humidity;BME280_pressure;Samples;Min_cycle;Max_cycle;Signal;HPM_P1;HPM_P2
2022/04/22 00:01:05;;;;;;;3.72;1.10;;;21.30;68.80;;;;;;4030005;29;20055;-59
2022/04/22 00:03:08;;;;;;;2.30;0.80;;;21.30;68.70;;;;;;4002702;29;20060;-60
2022/04/22 00:05:10;;;;;;;3.90;1.20;;;21.30;68.70;;;;;;4019287;29;20048;-61
2022/04/22 00:07:12;;;;;;;1.70;0.95;;;21.30;68.90;;;;;;4010237;29;20062;-62
2022/04/22 00:09:14;;;;;;;2.40;0.80;;;21.40;69.10;;;;;;4030048;29;20246;-60
2022/04/22 00:11:37;;;;;;;2.65;0.65;;;21.40;68.90;;;;;;4021298;29;20051;-62
2022/04/22 00:13:39;;;;;;;2.72;1.02;;;21.40;68.90;;;;;;4028691;29;21641;-60
2022/04/22 00:15:41;;;;;;;3.42;0.70;;;21.40;68.80;;;;;;4020533;29;20111;-61
2022/04/22 00:17:43;;;;;;;2.47;1.08;;;21.40;68.60;;;;;;4005993;29;21314;-61
2022/04/22 00:19:45;;;;;;;2.03;0.70;;;21.50;68.60;;;;;;4014671;29;20147;-60
2022/04/22 00:21:48;;;;;;;2.55;1.27;;;21.50;68.50;;;;;;4021437;29;20325;-59
2022/04/22 00:23:51;;;;;;;2.17;0.60;;;21.50;68.40;;;;;;4005864;29;20052;-62
2022/04/22 00:25:54;;;;;;;4.88;0.80;;;21.50;68.20;;;;;;4031664;29;20313;-60
2022/04/22 00:27:56;;;;;;;3.20;1.02;;;21.60;68.10;;;;;;4014087;29;20166;-59
2022/04/22 00:29:58;;;;;;;2.00;0.75;;;21.60;68.00;;;;;;4027983;29;20071;-60
2022/04/22 00:32:00;;;;;;;1.23;0.60;;;21.60;67.90;;;;;;4029889;29;20055;-59
2022/04/22 00:34:02;;;;;;;3.17;0.95;;;21.60;67.70;;;;;;4018859;29;20064;-59
2022/04/22 00:36:05;;;;;;;2.45;0.85;;;21.70;67.70;;;;;;3995579;29;20062;-60
2022/04/22 00:38:07;;;;;;;1.42;0.43;;;21.70;67.50;;;;;;4011013;29;20052;-61
2022/04/22 00:40:10;;;;;;;2.60;1.27;;;21.70;67.40;;;;;;4036778;29;20052;-62
2022/04/22 00:42:12;;;;;;;2.60;0.93;;;21.70;67.40;;;;;;4029575;29;21997;-62
2022/04/22 00:44:15;;;;;;;0.77;0.63;;;21.70;67.30;;;;;;4013082;29;20795;-59
2022/04/22 00:46:17;;;;;;;1.48;0.60;;;21.70;67.10;;;;;;4019474;29;20056;-61
2022/04/22 00:48:21;;;;;;;1.15;0.60;;;21.70;67.70;;;;;;4019455;29;20064;-61
2022/04/22 00:50:23;;;;;;;1.42;0.70;;;21.80;67.10;;;;;;4031820;29;20055;-60
2022/04/22 00:52:25;;;;;;;2.67;0.98;;;21.80;67.00;;;;;;4015621;29;20146;-64
2022/04/22 00:54:30;;;;;;;1.58;0.70;;;21.80;67.00;;;;;;4023083;29;20146;-60
2022/04/22 00:56:33;;;;;;;0.80;0.45;;;21.80;66.90;;;;;;4032875;29;21022;-60
2022/04/22 00:58:40;;;;;;;1.58;0.60;;;21.80;66.90;;;;;;4032872;29;20082;-59
2022/04/22 01:00:43;;;;;;;1.08;0.50;;;21.80;66.90;;;;;;4026223;29;20104;-59
2022/04/22 01:02:45;;;;;;;2.83;0.80;;;21.80;66.80;;;;;;4031096;29;20056;-59
2022/04/22 01:09:48;;;;;;;4.70;1.00;;;21.90;66.80;;;;;;3987332;29;20077;-59
2022/04/22 01:11:50;;;;;;;2.90;0.90;;;21.90;66.80;;;;;;3992278;29;20116;-58
2022/04/22 01:13:53;;;;;;;1.45;0.80;;;22.00;66.90;;;;;;4039773;29;20059;-59
2022/04/22 01:15:56;;;;;;;1.45;0.50;;;21.90;66.70;;;;;;4043928;29;20040;-60
2022/04/22 01:17:58;;;;;;;2.22;0.93;;;22.00;66.70;;;;;;4036208;29;20093;-60
2022/04/22 01:20:00;;;;;;;3.33;0.88;;;22.00;66.60;;;;;;4035787;29;20063;-59
2022/04/22 01:22:03;;;;;;;3.00;1.05;;;22.00;66.50;;;;;;4043854;29;20055;-59
2022/04/22 01:24:05;;;;;;;3.08;0.80;;;22.00;66.70;;;;;;4038493;29;21816;-58
2022/04/22 01:26:08;;;;;;;1.65;0.80;;;22.00;66.70;;;;;;4037501;29;20079;-59
2022/04/22 01:28:10;;;;;;;3.17;1.10;;;22.00;66.60;;;;;;4039049;29;20079;-59
2022/04/22 01:30:12;;;;;;;1.60;0.60;;;22.00;66.60;;;;;;4009306;29;21488;-55
2022/04/22 01:32:14;;;;;;;3.17;0.77;;;22.10;66.70;;;;;;4036248;29;20070;-60
2022/04/22 01:34:17;;;;;;;3.20;1.08;;;22.10;66.70;;;;;;4039236;29;20079;-63
2022/04/22 01:36:20;;;;;;;1.30;0.73;;;22.10;66.60;;;;;;4045472;29;20052;-60
2022/04/22 01:38:22;;;;;;;2.20;0.98;;;22.10;66.60;;;;;;4037027;29;20145;-59
2022/04/22 01:40:24;;;;;;;2.45;0.80;;;22.10;66.60;;;;;;4038770;29;20713;-61
2022/04/22 01:42:26;;;;;;;3.67;1.00;;;22.10;66.70;;;;;;4045116;29;20059;-61
2022/04/22 01:44:29;;;;;;;2.72;0.80;;;22.10;66.60;;;;;;4041702;29;21463;-59
2022/04/22 01:46:31;;;;;;;2.15;0.82;;;22.10;66.60;;;;;;4038065;29;20059;-59
2022/04/22 01:48:33;;;;;;;6.18;1.02;;;22.10;66.60;;;;;;4041971;29;20406;-60
2022/04/22 01:50:35;;;;;;;1.73;0.60;;;22.10;66.70;;;;;;4028519;29;20792;-58
2022/04/22 01:52:40;;;;;;;3.97;1.13;;;22.10;66.60;;;;;;4040722;29;20866;-59
2022/04/22 01:54:43;;;;;;;3.78;1.05;;;22.10;66.60;;;;;;4041283;29;20138;-59
2022/04/22 01:56:45;;;;;;;2.53;0.90;;;22.10;66.60;;;;;;4047268;29;20052;-60
2022/04/22 01:58:47;;;;;;;2.30;0.85;;;22.10;66.60;;;;;;4025772;29;20060;-60
2022/04/22 02:00:49;;;;;;;4.05;1.25;;;22.10;66.60;;;;;;4038873;29;20056;-61
2022/04/22 02:02:51;;;;;;;3.63;1.00;;;22.20;66.60;;;;;;4045597;29;20252;-59
2022/04/22 02:04:54;;;;;;;1.45;0.52;;;22.20;66.70;;;;;;4046887;29;20907;-60
2022/04/22 02:06:56;;;;;;;3.85;0.95;;;22.20;66.70;;;;;;4038892;29;20060;-60
2022/04/22 02:08:58;;;;;;;2.45;0.70;;;22.20;66.60;;;;;;4041509;29;20082;-60
2022/04/22 02:11:00;;;;;;;2.75;0.90;;;22.20;67.40;;;;;;4047677;29;20429;-58
2022/04/22 02:13:03;;;;;;;1.25;0.60;;;22.20;66.70;;;;;;4043707;29;20055;-59
2022/04/22 02:15:06;;;;;;;2.92;0.93;;;22.20;66.60;;;;;;4044693;29;20063;-56
2022/04/22 02:17:08;;;;;;;2.83;1.35;;;22.20;66.50;;;;;;4053306;29;20066;-56
2022/04/22 02:19:10;;;;;;;2.85;0.88;;;22.20;66.50;;;;;;4049972;29;21147;-57
2022/04/22 02:21:12;;;;;;;2.42;1.10;;;22.20;66.50;;;;;;4047586;29;20052;-57
2022/04/22 02:23:14;;;;;;;3.53;1.17;;;22.20;66.40;;;;;;4049124;29;20082;-57
2022/04/22 02:25:16;;;;;;;2.45;1.10;;;22.20;66.40;;;;;;4046860;29;20063;-54
2022/04/22 02:29:46;;;;;;;2.92;1.13;;;22.20;66.30;;;;;;4050169;29;20434;-57
2022/04/22 02:31:52;;;;;;;3.15;1.27;;;22.20;66.30;;;;;;4033810;29;20518;-55
2022/04/22 02:33:55;;;;;;;5.57;1.80;;;22.20;65.70;;;;;;4053269;29;20090;-54
2022/04/22 02:35:57;;;;;;;3.28;1.63;;;22.20;65.60;;;;;;4053029;29;21357;-58
2022/04/22 02:37:59;;;;;;;5.55;1.80;;;22.20;65.60;;;;;;4052119;29;20685;-58
2022/04/22 02:40:01;;;;;;;6.13;1.65;;;22.10;65.70;;;;;;4043412;29;20149;-57
2022/04/22 02:46:44;;;;;;;7.20;1.85;;;22.10;66.20;;;;;;4026486;29;20161;-57
2022/04/22 02:48:47;;;;;;;3.28;1.10;;;22.10;66.20;;;;;;4038269;29;20059;-57
2022/04/22 02:50:49;;;;;;;4.70;1.35;;;22.10;66.30;;;;;;4033917;29;20837;-57
2022/04/22 02:52:51;;;;;;;5.32;1.42;;;22.10;66.40;;;;;;4040426;29;20535;-54
2022/04/22 02:54:54;;;;;;;3.03;1.02;;;22.20;66.40;;;;;;4032382;29;20166;-56
2022/04/22 02:56:57;;;;;;;2.40;0.95;;;22.20;66.40;;;;;;4036823;29;20059;-60
2022/04/22 02:59:00;;;;;;;5.00;1.33;;;22.20;66.40;;;;;;4038966;29;20128;-55
2022/04/22 03:01:03;;;;;;;2.47;1.23;;;22.20;66.30;;;;;;4036660;29;20178;-57
2022/04/22 03:03:06;;;;;;;5.82;1.58;;;22.20;66.30;;;;;;4035783;29;20083;-57
2022/04/22 03:05:09;;;;;;;2.87;1.10;;;22.30;66.40;;;;;;4020571;29;20056;-59
2022/04/22 03:07:11;;;;;;;2.95;1.13;;;22.20;66.40;;;;;;4044558;29;20059;-55
2022/04/22 03:09:13;;;;;;;4.15;1.40;;;22.20;66.00;;;;;;4036911;29;20846;-55
2022/04/22 03:11:21;;;;;;;4.80;1.50;;;22.20;65.40;;;;;;4036374;29;20063;-53
2022/04/22 03:13:24;;;;;;;5.28;1.40;;;22.20;65.30;;;;;;4036465;29;20114;-56
2022/04/22 03:15:26;;;;;;;4.82;1.52;;;22.20;65.30;;;;;;4025654;29;20075;-52
2022/04/22 03:17:28;;;;;;;4.80;1.40;;;22.10;65.20;;;;;;4035415;29;20083;-55
2022/04/22 03:19:31;;;;;;;3.80;1.13;;;22.20;65.70;;;;;;4035234;29;20666;-51
2022/04/22 03:21:34;;;;;;;;;;;22.20;66.20;;;;;;4042914;29;20060;-56
2022/04/22 03:23:36;;;;;;;4.32;1.25;;;22.20;66.40;;;;;;4039590;29;19938;-56
2022/04/22 03:25:40;;;;;;;3.92;1.23;;;22.10;66.50;;;;;;4036445;29;20048;-59
2022/04/22 03:27:43;;;;;;;3.25;1.50;;;22.20;67.20;;;;;;4019889;29;20067;-56
2022/04/22 03:29:45;;;;;;;1.65;1.00;;;22.20;66.60;;;;;;4026705;29;20067;-52
2022/04/22 03:31:47;;;;;;;2.95;0.95;;;22.20;66.50;;;;;;4035986;29;20143;-51
2022/04/22 03:33:49;;;;;;;3.75;0.95;;;22.20;66.50;;;;;;4036667;29;20114;-61
2022/04/22 03:35:51;;;;;;;3.42;1.20;;;22.20;67.00;;;;;;4043169;29;20594;-59
2022/04/22 03:37:55;;;;;;;4.20;0.90;;;22.20;66.50;;;;;;4022990;29;20227;-60
2022/04/22 03:39:57;;;;;;;6.43;1.25;;;22.20;66.60;;;;;;4033578;29;20182;-59
2022/04/22 03:41:59;;;;;;;2.45;0.90;;;22.20;66.60;;;;;;4022163;29;20059;-59
2022/04/22 03:44:01;;;;;;;1.95;0.90;;;22.20;66.50;;;;;;4038045;29;20059;-60
2022/04/22 03:46:03;;;;;;;5.70;1.02;;;22.20;66.60;;;;;;4015386;29;20174;-60
2022/04/22 03:48:07;;;;;;;1.55;0.68;;;22.20;66.50;;;;;;4017816;29;20063;-61
2022/04/22 03:50:09;;;;;;;1.73;0.85;;;22.20;66.50;;;;;;4044397;29;20055;-60
2022/04/22 03:52:12;;;;;;;3.80;0.68;;;22.20;66.50;;;;;;4036218;29;20066;-65
2022/04/22 03:54:18;;;;;;;1.48;0.68;;;22.20;66.50;;;;;;4039654;29;20142;-63
2022/04/22 03:58:40;;;;;;;4.30;0.95;;;22.20;66.60;;;;;;4024341;29;20056;-63
2022/04/22 04:00:50;;;;;;;2.80;0.98;;;22.20;66.60;;;;;;4045787;29;20380;-60
2022/04/22 04:02:53;;;;;;;3.63;0.88;;;22.20;66.60;;;;;;4048227;29;20425;-60
2022/04/22 04:04:55;;;;;;;2.53;0.75;;;22.20;66.90;;;;;;4029892;29;20047;-60
2022/04/22 04:06:57;;;;;;;5.57;0.60;;;22.20;66.90;;;;;;4043189;29;20646;-60
2022/04/22 04:16:00;;;;;;;2.33;0.77;;;22.30;66.60;;;;;;4050353;29;20059;-59
2022/04/22 04:18:03;;;;;;;1.70;0.60;;;22.40;66.70;;;;;;4045380;29;20138;-61
2022/04/22 04:24:46;;;;;;;1.30;0.60;;;22.30;66.70;;;;;;4049863;29;20380;-59
2022/04/22 04:26:48;;;;;;;2.95;1.17;;;22.40;66.80;;;;;;4043086;29;20094;-60
2022/04/22 04:28:51;;;;;;;1.40;0.50;;;22.40;66.90;;;;;;4013980;29;20087;-62
2022/04/22 04:30:53;;;;;;;2.97;0.50;;;22.40;66.70;;;;;;4037875;29;20158;-59
2022/04/22 04:32:55;;;;;;;4.32;0.98;;;22.40;66.60;;;;;;4010754;29;20059;-56
2022/04/22 04:34:58;;;;;;;1.90;0.60;;;22.40;66.70;;;;;;4026292;29;20047;-50
2022/04/22 04:37:00;;;;;;;2.00;0.85;;;22.40;66.70;;;;;;4036019;29;20064;-56
2022/04/22 04:39:02;;;;;;;1.65;0.55;;;22.40;66.70;;;;;;4028407;29;20051;-55
2022/04/22 04:41:05;;;;;;;1.25;0.60;;;22.30;66.70;;;;;;3988609;29;20069;-55
2022/04/22 04:43:08;;;;;;;1.98;0.70;;;22.30;66.80;;;;;;4023065;29;20520;-59
2022/04/22 04:45:10;;;;;;;13.05;2.17;;;22.30;66.90;;;;;;4029397;29;20910;-55
2022/04/22 04:47:12;;;;;;;14.63;1.90;;;22.40;66.90;;;;;;4020388;29;20083;-54
2022/04/22 04:49:14;;;;;;;19.33;1.55;;;22.30;66.90;;;;;;4020088;29;20554;-57
2022/04/22 04:51:16;;;;;;;12.55;1.80;;;22.40;66.90;;;;;;4029051;29;20574;-54
2022/04/22 04:53:20;;;;;;;5.20;1.15;;;22.40;66.90;;;;;;4018152;29;20106;-59
2022/04/22 04:55:22;;;;;;;6.22;1.20;;;22.40;66.90;;;;;;4018618;29;20048;-56
2022/04/22 04:57:24;;;;;;;5.63;1.17;;;22.30;66.30;;;;;;4024959;29;20055;-58
2022/04/22 04:59:27;;;;;;;9.00;1.25;;;22.30;66.70;;;;;;4007992;29;21163;-58
2022/04/22 05:01:29;;;;;;;2.30;0.93;;;22.30;66.80;;;;;;3995712;29;21162;-59
2022/04/22 05:03:31;;;;;;;5.85;1.30;;;22.30;67.10;;;;;;3995837;29;20048;-58
2022/04/22 05:05:33;;;;;;;5.15;1.40;;;22.30;67.20;;;;;;4018082;29;20063;-58
2022/04/22 05:07:57;;;;;;;3.78;1.40;;;22.30;67.40;;;;;;4006959;29;20076;-59
2022/04/22 05:10:00;;;;;;;4.82;1.10;;;22.30;67.40;;;;;;4025953;29;20070;-58
2022/04/22 05:12:02;;;;;;;4.53;0.82;;;22.40;67.50;;;;;;4005684;29;20060;-61
2022/04/22 05:14:04;;;;;;;7.05;1.35;;;22.30;67.50;;;;;;4019393;29;20080;-59
2022/04/22 05:16:06;;;;;;;3.35;0.90;;;22.40;67.50;;;;;;4028112;29;20562;-59
2022/04/22 05:18:08;;;;;;;1.95;0.80;;;22.40;67.50;;;;;;3988090;29;20105;-55
2022/04/22 05:20:16;;;;;;;2.05;0.80;;;22.40;67.50;;;;;;4017312;29;20542;-57
2022/04/22 05:22:18;;;;;;;2.55;0.63;;;22.40;67.40;;;;;;4016802;29;20563;-58
2022/04/22 05:24:20;;;;;;;1.05;0.40;;;22.40;67.40;;;;;;4009873;29;20171;-59
2022/04/22 05:26:24;;;;;;;1.60;0.60;;;22.40;67.40;;;;;;4003158;29;20940;-59
2022/04/22 05:28:26;;;;;;;3.33;0.73;;;22.50;67.40;;;;;;4018157;29;20066;-58
2022/04/22 05:32:48;;;;;;;3.00;0.85;;;22.50;67.20;;;;;;4018431;29;20836;-60
2022/04/22 05:34:50;;;;;;;2.47;0.60;;;22.50;67.10;;;;;;4007050;29;20179;-59
2022/04/22 05:36:52;;;;;;;1.40;0.52;;;22.50;67.40;;;;;;4005422;29;21267;-60
2022/04/22 05:38:54;;;;;;;2.08;0.85;;;22.50;67.30;;;;;;4003792;29;20477;-59
2022/04/22 05:40:57;;;;;;;1.20;0.57;;;22.50;67.30;;;;;;4006544;29;20086;-62
2022/04/22 05:42:59;;;;;;;0.30;0.30;;;22.50;67.30;;;;;;4029321;29;20529;-59
2022/04/22 05:45:01;;;;;;;1.67;0.65;;;22.50;68.00;;;;;;4018565;29;20614;-58
2022/04/22 05:47:04;;;;;;;2.00;0.47;;;22.50;67.30;;;;;;3999785;29;20770;-59
2022/04/22 05:49:06;;;;;;;1.63;0.70;;;22.60;67.30;;;;;;4025816;29;20511;-55
2022/04/22 05:51:08;;;;;;;1.17;0.57;;;22.60;67.30;;;;;;4002248;29;20167;-58
2022/04/22 05:53:10;;;;;;;1.20;0.50;;;22.60;67.30;;;;;;4003019;29;20060;-60
2022/04/22 05:55:18;;;;;;;0.55;0.40;;;22.60;67.20;;;;;;4029868;29;20511;-60
2022/04/22 05:57:20;;;;;;;0.40;0.38;;;22.60;67.20;;;;;;4015977;29;20076;-58
2022/04/22 05:59:22;;;;;;;2.70;0.47;;;22.60;67.20;;;;;;4020910;29;20115;-61
2022/04/22 06:01:24;;;;;;;1.30;0.60;;;22.60;67.20;;;;;;4005811;29;20084;-55
2022/04/22 06:03:26;;;;;;;0.52;0.40;;;22.60;67.20;;;;;;4029048;29;20047;-60
2022/04/22 06:05:29;;;;;;;1.60;0.35;;;22.60;67.20;;;;;;4006669;29;20154;-60
2022/04/22 06:07:31;;;;;;;1.88;0.50;;;22.60;67.20;;;;;;4025605;29;20743;-57
2022/04/22 06:11:54;;;;;;;1.20;0.45;;;22.60;67.10;;;;;;4026090;29;20432;-59
2022/04/22 06:13:56;;;;;;;0.90;0.50;;;22.60;67.10;;;;;;4038001;29;20051;-59
2022/04/22 06:15:58;;;;;;;0.43;0.35;;;22.60;67.10;;;;;;4016301;29;21983;-60
2022/04/22 06:18:01;;;;;;;1.45;0.40;;;22.60;67.00;;;;;;4029929;29;20060;-60
2022/04/22 06:20:04;;;;;;;1.77;0.70;;;22.60;67.10;;;;;;4032356;29;20226;-60
2022/04/22 06:22:06;;;;;;;1.58;0.55;;;22.60;67.10;;;;;;4044340;29;20503;-60
2022/04/22 06:24:08;;;;;;;1.52;0.52;;;22.60;67.10;;;;;;4034688;29;20178;-59
2022/04/22 06:26:10;;;;;;;2.83;0.63;;;22.60;67.20;;;;;;4036889;29;20236;-60
2022/04/22 06:28:13;;;;;;;1.00;0.50;;;22.60;67.20;;;;;;4045749;29;20821;-59
2022/04/22 06:30:18;;;;;;;1.90;0.40;;;22.60;67.20;;;;;;4039106;29;20060;-59
2022/04/22 06:32:22;;;;;;;1.15;0.30;;;22.60;67.10;;;;;;4021394;29;20068;-60
2022/04/22 06:34:24;;;;;;;1.77;0.50;;;22.60;67.00;;;;;;4038925;29;22035;-59
2022/04/22 06:36:29;;;;;;;1.83;0.65;;;22.60;67.00;;;;;;4045531;29;20083;-60
2022/04/22 06:38:32;;;;;;;1.00;0.60;;;22.60;67.00;;;;;;4039563;29;20071;-59
2022/04/22 06:47:37;;;;;;;1.45;0.55;;;22.60;67.00;;;;;;4043206;29;20083;-58
2022/04/22 06:49:40;;;;;;;1.55;0.60;;;22.60;67.00;;;;;;4049091;29;20059;-56
2022/04/22 06:51:43;;;;;;;1.55;0.82;;;22.60;67.10;;;;;;4043138;29;20052;-57
2022/04/22 06:53:46;;;;;;;2.95;0.50;;;22.60;67.10;;;;;;4037142;29;20052;-59
2022/04/22 06:55:49;;;;;;;1.33;0.50;;;22.60;67.20;;;;;;4046795;29;20665;-58
2022/04/22 06:57:52;;;;;;;2.03;0.75;;;22.60;67.00;;;;;;4035758;29;20075;-56
2022/04/22 06:59:55;;;;;;;1.15;0.60;;;22.60;67.00;;;;;;4047047;29;20044;-59
2022/04/22 07:01:58;;;;;;;1.00;0.50;;;22.60;67.00;;;;;;4053059;29;20080;-56
2022/04/22 07:04:00;;;;;;;1.35;0.80;;;22.60;67.00;;;;;;4056456;29;20062;-57
2022/04/22 07:06:03;;;;;;;1.00;0.60;;;22.60;67.00;;;;;;4025669;29;22095;-58
2022/04/22 07:08:20;;;;;;;1.45;0.73;;;22.60;67.10;;;;;;4019802;29;20058;-59
2022/04/22 07:11:00;;;;;;;1.45;0.95;;;22.60;67.00;;;;;;4041994;29;20058;-60
2022/04/22 07:13:04;;;;;;;2.47;0.80;;;22.60;67.30;;;;;;4033296;29;20066;-58
2022/04/22 07:21:35;;;;;;;5.53;1.20;;;22.60;67.70;;;;;;4019177;29;20191;-59
2022/04/22 07:23:38;;;;;;;2.57;0.80;;;22.60;67.50;;;;;;4017629;29;20051;-58
2022/04/22 07:25:44;;;;;;;1.95;0.80;;;22.50;67.40;;;;;;4005376;29;20441;-59
2022/04/22 07:27:47;;;;;;;1.40;0.80;;;22.60;67.50;;;;;;4030922;29;20092;-58
2022/04/22 07:29:50;;;;;;;3.67;0.98;;;22.50;67.40;;;;;;4039706;29;21697;-58
2022/04/22 07:31:52;;;;;;;3.00;1.00;;;22.50;67.40;;;;;;4034483;29;20043;-57
2022/04/22 07:33:55;;;;;;;4.05;0.90;;;22.50;67.40;;;;;;4034423;29;20423;-58
2022/04/22 07:35:57;;;;;;;2.17;0.60;;;22.40;67.30;;;;;;4040453;29;20056;-58
2022/04/22 07:37:59;;;;;;;1.60;0.80;;;22.40;67.30;;;;;;4015884;29;20087;-58
2022/04/22 07:40:02;;;;;;;1.53;0.63;;;22.40;67.40;;;;;;4032046;29;20056;-58
2022/04/22 07:42:08;;;;;;;3.00;0.80;;;22.40;67.40;;;;;;4037030;29;20150;-57
2022/04/22 07:46:48;;;;;;;1.45;0.55;;;22.40;67.50;;;;;;4032901;29;20059;-59
2022/04/22 07:48:52;;;;;;;2.85;0.52;;;22.30;67.40;;;;;;4014056;29;20067;-58
2022/04/22 07:50:54;;;;;;;1.67;0.70;;;22.30;67.40;;;;;;4035530;29;20133;-58
2022/04/22 07:52:56;;;;;;;0.82;0.45;;;22.30;68.00;;;;;;4034997;29;20150;-58
2022/04/22 07:54:59;;;;;;;0.57;0.40;;;22.30;67.50;;;;;;4030477;29;20673;-58
2022/04/22 07:57:01;;;;;;;0.40;0.40;;;22.20;67.40;;;;;;4029954;29;20062;-59
2022/04/22 07:59:03;;;;;;;1.08;0.50;;;22.20;67.40;;;;;;4019691;29;20599;-58
2022/04/22 08:01:05;;;;;;;0.70;0.60;;;22.20;67.40;;;;;;4030368;29;20051;-59
2022/04/22 08:03:09;;;;;;;1.08;0.57;;;22.20;67.50;;;;;;4014246;29;20836;-58
2022/04/22 08:05:12;;;;;;;1.23;0.30;;;22.20;67.50;;;;;;4019092;29;20087;-58
2022/04/22 08:07:15;;;;;;;0.35;0.30;;;22.20;67.50;;;;;;4017071;29;20052;-58
2022/04/22 08:09:17;;;;;;;2.35;0.50;;;22.10;67.50;;;;;;4028395;29;20151;-58
2022/04/22 08:11:20;;;;;;;1.20;0.50;;;22.20;67.60;;;;;;4032202;29;20051;-59
2022/04/22 08:13:24;;;;;;;1.27;0.43;;;22.10;67.50;;;;;;4036165;29;20081;-57
2022/04/22 08:15:26;;;;;;;1.08;0.65;;;22.10;67.50;;;;;;4031577;29;20062;-58
2022/04/22 08:17:32;;;;;;;1.05;0.50;;;22.10;67.60;;;;;;4014129;29;20186;-58
2022/04/22 08:19:34;;;;;;;1.02;0.38;;;22.10;67.60;;;;;;4036043;29;20066;-58
2022/04/22 08:21:36;;;;;;;1.05;0.50;;;22.10;67.60;;;;;;4038683;29;20057;-58
2022/04/22 08:23:39;;;;;;;1.52;0.65;;;22.10;67.60;;;;;;4030777;29;20060;-58
2022/04/22 08:25:42;;;;;;;0.70;0.47;;;22.10;67.60;;;;;;4030319;29;20151;-59
2022/04/22 08:27:46;;;;;;;1.05;0.40;;;22.00;67.60;;;;;;4039499;29;20098;-57
2022/04/22 08:29:48;;;;;;;0.75;0.57;;;22.10;67.70;;;;;;4033507;29;20055;-58
2022/04/22 08:31:52;;;;;;;0.40;0.40;;;22.00;67.70;;;;;;4029800;29;20070;-58
2022/04/22 08:33:57;;;;;;;0.88;0.50;;;22.00;67.70;;;;;;4033715;29;20149;-59
2022/04/22 08:36:00;;;;;;;0.45;0.28;;;22.00;67.70;;;;;;4037752;29;20064;-58
2022/04/22 08:38:03;;;;;;;0.63;0.57;;;22.00;67.70;;;;;;4029786;29;20055;-57
2022/04/22 08:40:07;;;;;;;1.42;0.70;;;22.00;67.80;;;;;;4030201;29;20563;-58
2022/04/22 08:42:12;;;;;;;2.80;0.60;;;22.00;67.80;;;;;;4032988;29;20066;-58
2022/04/22 08:44:15;;;;;;;1.92;0.70;;;22.00;67.80;;;;;;4038609;29;20150;-58
2022/04/22 08:51:00;;;;;;;0.80;0.40;;;21.90;67.80;;;;;;4036985;29;20131;-59
2022/04/22 08:53:07;;;;;;;1.38;0.70;;;21.90;67.80;;;;;;4040569;29;20106;-58
2022/04/22 08:55:10;;;;;;;2.47;0.60;;;21.90;68.50;;;;;;4017503;29;21135;-58
2022/04/22 08:57:13;;;;;;;0.98;0.60;;;21.90;68.00;;;;;;4021306;29;20064;-58
2022/04/22 08:59:15;;;;;;;1.30;0.50;;;21.90;67.90;;;;;;4016910;29;20102;-59
2022/04/22 09:01:17;;;;;;;1.38;0.80;;;21.90;68.00;;;;;;4034724;29;20314;-58
2022/04/22 09:03:21;;;;;;;0.73;0.60;;;21.90;68.00;;;;;;4025581;29;20075;-58
2022/04/22 09:05:25;;;;;;;0.55;0.47;;;21.90;68.00;;;;;;4032622;29;20055;-58
2022/04/22 09:07:28;;;;;;;0.80;0.60;;;21.90;68.00;;;;;;4039148;29;20146;-58
2022/04/22 09:09:30;;;;;;;0.98;0.50;;;21.90;68.00;;;;;;4021756;29;20063;-58
2022/04/22 09:11:40;;;;;;;1.75;0.70;;;21.90;68.10;;;;;;4033706;29;20062;-59
2022/04/22 09:13:42;;;;;;;1.10;0.55;;;21.90;68.10;;;;;;4028491;29;20158;-58
2022/04/22 09:15:45;;;;;;;0.98;0.60;;;21.90;68.10;;;;;;4035934;29;20190;-58
2022/04/22 09:17:47;;;;;;;1.27;0.90;;;21.80;68.00;;;;;;4022953;29;20111;-58
2022/04/22 09:19:51;;;;;;;0.77;0.40;;;21.80;68.10;;;;;;4031393;29;20089;-58
2022/04/22 09:21:58;;;;;;;2.20;0.73;;;21.80;68.10;;;;;;4030428;29;20051;-58
2022/04/22 09:24:20;;;;;;;0.93;0.50;;;21.80;68.10;;;;;;4035656;29;20056;-59
2022/04/22 09:26:30;;;;;;;0.65;0.40;;;21.80;68.10;;;;;;4033066;29;20060;-58
2022/04/22 09:28:34;;;;;;;1.10;0.50;;;21.80;68.10;;;;;;4033069;29;20070;-58
2022/04/22 09:30:36;;;;;;;0.45;0.40;;;21.80;68.10;;;;;;4033206;29;20064;-59
2022/04/22 09:32:40;;;;;;;0.70;0.47;;;21.80;68.10;;;;;;4039628;29;20047;-57
2022/04/22 09:34:42;;;;;;;2.03;0.80;;;21.80;68.10;;;;;;4034101;29;20066;-58
2022/04/22 09:44:00;;;;;;;1.70;0.57;;;21.70;68.10;;;;;;4033045;29;20051;-57
2022/04/22 09:46:02;;;;;;;1.13;0.70;;;21.70;68.20;;;;;;4032409;29;20059;-58
2022/04/22 09:48:19;;;;;;;0.50;0.50;;;21.70;68.20;;;;;;4040131;29;20051;-58
2022/04/22 09:50:40;;;;;;;0.82;0.63;;;21.70;68.30;;;;;;4039061;29;20064;-59
2022/04/22 09:52:46;;;;;;;0.90;0.60;;;21.70;68.20;;;;;;4028573;29;20079;-58
2022/04/22 09:55:01;;;;;;;0.60;0.52;;;21.70;68.20;;;;;;4036689;29;20067;-58
2022/04/22 09:57:04;;;;;;;0.60;0.60;;;21.70;68.20;;;;;;4030278;29;20593;-57
2022/04/22 09:59:28;;;;;;;0.50;0.40;;;21.70;68.30;;;;;;4038419;29;20251;-58
2022/04/22 10:01:30;;;;;;;0.40;0.40;;;21.70;68.30;;;;;;4031504;29;20143;-58
2022/04/22 10:03:38;;;;;;;0.88;0.57;;;21.70;68.30;;;;;;4038564;29;20488;-57
2022/04/22 10:05:41;;;;;;;0.70;0.60;;;21.60;68.30;;;;;;4036356;29;20090;-58
2022/04/22 10:07:43;;;;;;;0.70;0.50;;;21.70;68.30;;;;;;4030634;29;20060;-57
2022/04/22 10:09:53;;;;;;;1.00;0.68;;;21.60;68.30;;;;;;4028147;29;20167;-56
2022/04/22 10:11:58;;;;;;;0.80;0.60;;;21.70;68.30;;;;;;4016279;29;20056;-58
2022/04/22 10:14:02;;;;;;;2.08;0.60;;;21.70;68.40;;;;;;4039318;29;20652;-57
2022/04/22 10:16:05;;;;;;;0.68;0.50;;;21.60;68.30;;;;;;4033727;29;20083;-57
2022/04/22 10:18:12;;;;;;;1.87;0.80;;;21.60;68.40;;;;;;4029673;29;20075;-58
2022/04/22 10:20:14;;;;;;;1.30;0.60;;;21.60;68.40;;;;;;4029012;29;20089;-58
2022/04/22 10:22:18;;;;;;;0.68;0.60;;;21.60;68.40;;;;;;4037025;29;20150;-58
2022/04/22 10:24:22;;;;;;;0.57;0.45;;;21.60;68.30;;;;;;4033852;29;21470;-57
2022/04/22 10:26:26;;;;;;;1.45;0.55;;;21.60;68.30;;;;;;4012296;29;20060;-58
2022/04/22 10:28:30;;;;;;;0.95;0.50;;;21.60;68.40;;;;;;4032257;29;20135;-58
2022/04/22 10:30:33;;;;;;;0.47;0.40;;;21.60;68.40;;;;;;4039508;29;20051;-58
2022/04/22 10:32:35;;;;;;;0.50;0.50;;;21.60;68.40;;;;;;4015813;29;21524;-58
2022/04/22 10:34:45;;;;;;;0.50;0.40;;;21.60;68.40;;;;;;4027196;29;20471;-57
2022/04/22 10:36:56;;;;;;;0.40;0.40;;;21.60;68.40;;;;;;4030627;29;20048;-56
2022/04/22 10:38:58;;;;;;;1.10;0.65;;;21.60;68.00;;;;;;4032335;29;20070;-58
2022/04/22 10:41:02;;;;;;;0.43;0.38;;;21.60;68.50;;;;;;4040956;29;20790;-58
2022/04/22 10:43:05;;;;;;;0.38;0.38;;;21.60;68.50;;;;;;4032389;29;20109;-58
2022/04/22 10:47:47;;;;;;;1.15;0.60;;;21.50;68.50;;;;;;4036926;29;20349;-58
2022/04/22 10:49:50;;;;;;;0.38;0.38;;;21.50;68.50;;;;;;4023543;29;20060;-58
2022/04/22 10:52:19;;;;;;;0.52;0.47;;;21.50;68.60;;;;;;4035139;29;21646;-58
2022/04/22 10:54:21;;;;;;;0.65;0.50;;;21.50;68.20;;;;;;4034995;29;20955;-58
2022/04/22 10:56:29;;;;;;;0.50;0.50;;;21.50;68.60;;;;;;4030679;29;20066;-58
2022/04/22 10:58:32;;;;;;;1.17;0.70;;;21.50;68.60;;;;;;4019693;29;20178;-59
2022/04/22 11:00:38;;;;;;;0.75;0.40;;;21.50;68.60;;;;;;4032158;29;20124;-58
2022/04/22 11:02:42;;;;;;;0.50;0.30;;;21.50;68.60;;;;;;4018694;29;20059;-58
2022/04/22 11:04:44;;;;;;;1.02;0.50;;;21.50;68.60;;;;;;4041026;29;20114;-58
2022/04/22 11:06:46;;;;;;;0.52;0.43;;;21.50;68.60;;;;;;4020619;29;21732;-59
2022/04/22 11:09:00;;;;;;;0.85;0.43;;;21.50;68.60;;;;;;4035626;29;20685;-58
2022/04/22 11:11:22;;;;;;;1.50;0.60;;;21.50;68.60;;;;;;4037206;29;20127;-58
2022/04/22 11:13:40;;;;;;;0.43;0.43;;;21.50;68.60;;;;;;4041071;29;21056;-56
2022/04/22 11:15:50;;;;;;;0.80;0.47;;;21.50;68.70;;;;;;4044735;29;20453;-58
2022/04/22 11:17:55;;;;;;;0.80;0.50;;;21.50;68.70;;;;;;4041941;29;20070;-57
2022/04/22 11:19:59;;;;;;;1.08;0.57;;;21.40;68.70;;;;;;4038887;29;20055;-57
2022/04/22 11:22:01;;;;;;;;;;;21.50;68.70;;;;;;4037742;29;20084;-57
2022/04/22 11:24:27;;;;;;;0.45;0.40;;;21.40;68.60;;;;;;4038421;29;19994;-57
2022/04/22 11:26:30;;;;;;;0.75;0.50;;;21.40;69.40;;;;;;4034793;29;20058;-58
2022/04/22 11:28:37;;;;;;;0.70;0.60;;;21.40;68.70;;;;;;4035613;29;20059;-56
2022/04/22 11:30:40;;;;;;;0.82;0.47;;;21.40;69.30;;;;;;4038977;29;20890;-59
2022/04/22 11:32:45;;;;;;;;;;;21.40;68.80;;;;;;4044897;29;20056;-57
2022/04/22 11:34:49;;;;;;;;;;;21.40;68.70;;;;;;4034603;29;19986;-58
2022/04/22 11:36:52;;;;;;;0.88;0.60;;;21.40;68.70;;;;;;4036934;29;20077;-58
2022/04/22 11:38:56;;;;;;;0.30;0.30;;;21.40;68.80;;;;;;4042606;29;20059;-59
2022/04/22 11:40:59;;;;;;;0.30;0.30;;;21.40;68.80;;;;;;4046848;29;20051;-58
2022/04/22 11:43:06;;;;;;;0.80;0.50;;;21.40;68.80;;;;;;4039455;29;20052;-57
2022/04/22 11:45:11;;;;;;;0.70;0.45;;;21.40;68.80;;;;;;4039972;29;20111;-58
2022/04/22 11:47:14;;;;;;;1.27;0.70;;;21.40;68.80;;;;;;4039275;29;20064;-58